sensor_id;sensor_type;location;lat;lon;timestamp;P1;durP1;ratioP1;P2;durP2;ratioP2
4317;SDS011;2172;53.576;9.934;2023-07-22T00:00:34;10.30;;;9.17;;
4317;SDS011;2172;53.576;9.934;2023-07-22T00:03:02;19.23;;;10.87;;
4317;SDS011;2172;53.576;9.934;2023-07-22T00:05:30;13.50;;;11.00;;
4317;SDS011;2172;53.576;9.934;2023-07-22T00:07:57;13.07;;;10.50;;
4317;SDS011;2172;53.576;9.934;2023-07-22T00:10:26;14.70;;;10.63;;
4317;SDS011;2172;53.576;9.934;2023-07-22T00:12:54;13.63;;;10.33;;
4317;SDS011;2172;53.576;9.934;2023-07-22T00:15:21;13.30;;;10.53;;
4317;SDS011;2172;53.576;9.934;2023-07-22T00:17:50;15.73;;;10.70;;
4317;SDS011;2172;53.576;9.934;2023-07-22T00:20:18;13.80;;;10.80;;
4317;SDS011;2172;53.576;9.934;2023-07-22T00:22:46;13.57;;;10.63;;
4317;SDS011;2172;53.576;9.934;2023-07-22T00:25:15;15.57;;;11.07;;
4317;SDS011;2172;53.576;9.934;2023-07-22T00:27:44;17.00;;;11.43;;
4317;SDS011;2172;53.576;9.934;2023-07-22T00:30:13;15.10;;;11.13;;
4317;SDS011;2172;53.576;9.934;2023-07-22T00:32:40;11.43;;;10.33;;
4317;SDS011;2172;53.576;9.934;2023-07-22T00:35:08;12.93;;;10.83;;
4317;SDS011;2172;53.576;9.934;2023-07-22T00:37:37;12.60;;;10.90;;
4317;SDS011;2172;53.576;9.934;2023-07-22T00:40:04;13.20;;;10.83;;
4317;SDS011;2172;53.576;9.934;2023-07-22T00:42:37;12.40;;;10.43;;
4317;SDS011;2172;53.576;9.934;2023-07-22T00:45:06;14.27;;;10.90;;
4317;SDS011;2172;53.576;9.934;2023-07-22T00:47:35;16.20;;;12.03;;
4317;SDS011;2172;53.576;9.934;2023-07-22T00:50:03;14.53;;;11.00;;
4317;SDS011;2172;53.576;9.934;2023-07-22T00:52:32;16.77;;;12.57;;
4317;SDS011;2172;53.576;9.934;2023-07-22T00:55:00;12.90;;;10.03;;
4317;SDS011;2172;53.576;9.934;2023-07-22T00:57:28;12.20;;;10.90;;
4317;SDS011;2172;53.576;9.934;2023-07-22T00:59:55;14.87;;;11.33;;
4317;SDS011;2172;53.576;9.934;2023-07-22T01:02:24;16.20;;;11.60;;
4317;SDS011;2172;53.576;9.934;2023-07-22T01:04:52;15.53;;;11.37;;
4317;SDS011;2172;53.576;9.934;2023-07-22T01:07:20;14.27;;;11.13;;
4317;SDS011;2172;53.576;9.934;2023-07-22T01:09:47;14.20;;;11.30;;
4317;SDS011;2172;53.576;9.934;2023-07-22T01:12:15;15.93;;;11.40;;
4317;SDS011;2172;53.576;9.934;2023-07-22T01:14:43;15.40;;;11.10;;
4317;SDS011;2172;53.576;9.934;2023-07-22T01:17:10;16.30;;;11.80;;
4317;SDS011;2172;53.576;9.934;2023-07-22T01:19:39;17.13;;;12.07;;
4317;SDS011;2172;53.576;9.934;2023-07-22T01:22:07;19.53;;;12.53;;
4317;SDS011;2172;53.576;9.934;2023-07-22T01:24:55;18.93;;;11.40;;
4317;SDS011;2172;53.576;9.934;2023-07-22T01:27:23;15.63;;;11.20;;
4317;SDS011;2172;53.576;9.934;2023-07-22T01:29:51;16.50;;;10.90;;
4317;SDS011;2172;53.576;9.934;2023-07-22T01:32:19;15.70;;;11.77;;
4317;SDS011;2172;53.576;9.934;2023-07-22T01:34:46;16.20;;;12.07;;
4317;SDS011;2172;53.576;9.934;2023-07-22T01:37:14;15.53;;;10.50;;
4317;SDS011;2172;53.576;9.934;2023-07-22T01:39:41;16.10;;;11.13;;
4317;SDS011;2172;53.576;9.934;2023-07-22T01:42:10;13.13;;;10.67;;
4317;SDS011;2172;53.576;9.934;2023-07-22T01:44:39;15.40;;;10.83;;
4317;SDS011;2172;53.576;9.934;2023-07-22T01:47:07;15.00;;;10.20;;
4317;SDS011;2172;53.576;9.934;2023-07-22T01:49:34;14.23;;;11.33;;
4317;SDS011;2172;53.576;9.934;2023-07-22T01:52:02;22.43;;;15.13;;
4317;SDS011;2172;53.576;9.934;2023-07-22T01:54:30;17.13;;;11.97;;
4317;SDS011;2172;53.576;9.934;2023-07-22T01:56:58;14.47;;;10.50;;
4317;SDS011;2172;53.576;9.934;2023-07-22T01:59:27;16.47;;;11.33;;
4317;SDS011;2172;53.576;9.934;2023-07-22T02:01:54;17.60;;;10.50;;
4317;SDS011;2172;53.576;9.934;2023-07-22T02:04:22;17.67;;;10.60;;
4317;SDS011;2172;53.576;9.934;2023-07-22T02:06:49;14.83;;;9.93;;
4317;SDS011;2172;53.576;9.934;2023-07-22T02:09:17;13.70;;;10.50;;
4317;SDS011;2172;53.576;9.934;2023-07-22T02:11:44;18.03;;;10.40;;
4317;SDS011;2172;53.576;9.934;2023-07-22T02:14:12;14.13;;;10.17;;
4317;SDS011;2172;53.576;9.934;2023-07-22T02:16:41;16.43;;;9.77;;
4317;SDS011;2172;53.576;9.934;2023-07-22T02:19:08;15.77;;;10.90;;
4317;SDS011;2172;53.576;9.934;2023-07-22T02:21:40;15.20;;;10.20;;
4317;SDS011;2172;53.576;9.934;2023-07-22T02:24:08;16.20;;;10.80;;
4317;SDS011;2172;53.576;9.934;2023-07-22T02:26:36;15.73;;;10.80;;
4317;SDS011;2172;53.576;9.934;2023-07-22T02:29:03;17.03;;;11.00;;
4317;SDS011;2172;53.576;9.934;2023-07-22T02:31:31;16.03;;;11.63;;
4317;SDS011;2172;53.576;9.934;2023-07-22T02:34:00;20.47;;;10.80;;
4317;SDS011;2172;53.576;9.934;2023-07-22T02:36:27;14.73;;;11.37;;
4317;SDS011;2172;53.576;9.934;2023-07-22T02:38:55;13.93;;;10.20;;
4317;SDS011;2172;53.576;9.934;2023-07-22T02:41:22;13.50;;;9.83;;
4317;SDS011;2172;53.576;9.934;2023-07-22T02:43:50;16.03;;;10.97;;
4317;SDS011;2172;53.576;9.934;2023-07-22T02:46:17;13.57;;;9.50;;
4317;SDS011;2172;53.576;9.934;2023-07-22T02:48:45;15.63;;;9.67;;
4317;SDS011;2172;53.576;9.934;2023-07-22T02:51:14;15.07;;;10.73;;
4317;SDS011;2172;53.576;9.934;2023-07-22T02:53:41;18.37;;;11.87;;
4317;SDS011;2172;53.576;9.934;2023-07-22T02:56:12;14.27;;;10.60;;
4317;SDS011;2172;53.576;9.934;2023-07-22T02:58:40;16.67;;;9.97;;
4317;SDS011;2172;53.576;9.934;2023-07-22T03:01:08;13.47;;;10.70;;
4317;SDS011;2172;53.576;9.934;2023-07-22T03:03:36;16.50;;;11.27;;
4317;SDS011;2172;53.576;9.934;2023-07-22T03:06:05;18.97;;;10.77;;
4317;SDS011;2172;53.576;9.934;2023-07-22T03:08:35;14.50;;;10.90;;
4317;SDS011;2172;53.576;9.934;2023-07-22T03:11:03;16.37;;;10.80;;
4317;SDS011;2172;53.576;9.934;2023-07-22T03:13:31;17.50;;;10.87;;
4317;SDS011;2172;53.576;9.934;2023-07-22T03:16:00;14.87;;;10.07;;
4317;SDS011;2172;53.576;9.934;2023-07-22T03:18:29;15.93;;;10.70;;
4317;SDS011;2172;53.576;9.934;2023-07-22T03:20:57;16.80;;;10.73;;
4317;SDS011;2172;53.576;9.934;2023-07-22T03:23:24;13.80;;;10.43;;
4317;SDS011;2172;53.576;9.934;2023-07-22T03:25:53;16.63;;;11.20;;
4317;SDS011;2172;53.576;9.934;2023-07-22T03:28:22;18.77;;;10.80;;
4317;SDS011;2172;53.576;9.934;2023-07-22T03:30:51;19.37;;;10.77;;
4317;SDS011;2172;53.576;9.934;2023-07-22T03:33:19;15.27;;;10.87;;
4317;SDS011;2172;53.576;9.934;2023-07-22T03:35:46;16.23;;;10.67;;
4317;SDS011;2172;53.576;9.934;2023-07-22T03:38:14;15.20;;;9.80;;
4317;SDS011;2172;53.576;9.934;2023-07-22T03:40:41;12.73;;;10.60;;
4317;SDS011;2172;53.576;9.934;2023-07-22T03:43:10;16.90;;;11.03;;
4317;SDS011;2172;53.576;9.934;2023-07-22T03:45:38;18.73;;;10.27;;
4317;SDS011;2172;53.576;9.934;2023-07-22T03:48:05;16.53;;;10.50;;
4317;SDS011;2172;53.576;9.934;2023-07-22T03:50:34;15.37;;;11.27;;
4317;SDS011;2172;53.576;9.934;2023-07-22T03:53:02;17.07;;;10.93;;
4317;SDS011;2172;53.576;9.934;2023-07-22T03:55:29;22.10;;;11.90;;
4317;SDS011;2172;53.576;9.934;2023-07-22T03:57:57;19.77;;;11.30;;
4317;SDS011;2172;53.576;9.934;2023-07-22T04:00:26;15.53;;;10.60;;
4317;SDS011;2172;53.576;9.934;2023-07-22T04:02:53;22.37;;;11.00;;
4317;SDS011;2172;53.576;9.934;2023-07-22T04:05:21;18.83;;;11.03;;
4317;SDS011;2172;53.576;9.934;2023-07-22T04:07:48;14.30;;;10.90;;
4317;SDS011;2172;53.576;9.934;2023-07-22T04:10:16;14.00;;;9.43;;
4317;SDS011;2172;53.576;9.934;2023-07-22T04:12:43;15.83;;;10.30;;
4317;SDS011;2172;53.576;9.934;2023-07-22T04:15:31;14.57;;;10.10;;
4317;SDS011;2172;53.576;9.934;2023-07-22T04:17:59;14.20;;;9.97;;
4317;SDS011;2172;53.576;9.934;2023-07-22T04:20:27;17.60;;;10.53;;
4317;SDS011;2172;53.576;9.934;2023-07-22T04:22:55;17.70;;;10.97;;
4317;SDS011;2172;53.576;9.934;2023-07-22T04:25:22;17.50;;;11.27;;
4317;SDS011;2172;53.576;9.934;2023-07-22T04:27:50;19.20;;;10.87;;
4317;SDS011;2172;53.576;9.934;2023-07-22T04:30:19;14.80;;;10.33;;
4317;SDS011;2172;53.576;9.934;2023-07-22T04:32:48;16.87;;;10.33;;
4317;SDS011;2172;53.576;9.934;2023-07-22T04:35:16;13.90;;;9.47;;
4317;SDS011;2172;53.576;9.934;2023-07-22T04:37:43;12.17;;;9.70;;
4317;SDS011;2172;53.576;9.934;2023-07-22T04:40:11;17.80;;;10.50;;
4317;SDS011;2172;53.576;9.934;2023-07-22T04:42:42;16.93;;;9.97;;
4317;SDS011;2172;53.576;9.934;2023-07-22T04:45:09;18.43;;;10.60;;
4317;SDS011;2172;53.576;9.934;2023-07-22T04:47:37;16.40;;;9.00;;
4317;SDS011;2172;53.576;9.934;2023-07-22T04:50:08;16.07;;;10.00;;
4317;SDS011;2172;53.576;9.934;2023-07-22T04:52:36;21.60;;;10.77;;
4317;SDS011;2172;53.576;9.934;2023-07-22T04:55:04;15.40;;;9.47;;
4317;SDS011;2172;53.576;9.934;2023-07-22T04:57:34;13.80;;;9.30;;
4317;SDS011;2172;53.576;9.934;2023-07-22T05:00:02;14.10;;;8.87;;
4317;SDS011;2172;53.576;9.934;2023-07-22T05:02:30;17.83;;;10.07;;
4317;SDS011;2172;53.576;9.934;2023-07-22T05:04:58;15.87;;;10.20;;
4317;SDS011;2172;53.576;9.934;2023-07-22T05:07:27;14.87;;;8.67;;
4317;SDS011;2172;53.576;9.934;2023-07-22T05:09:55;13.63;;;9.67;;
4317;SDS011;2172;53.576;9.934;2023-07-22T05:12:22;13.27;;;8.77;;
4317;SDS011;2172;53.576;9.934;2023-07-22T05:14:50;12.97;;;10.00;;
4317;SDS011;2172;53.576;9.934;2023-07-22T05:17:17;12.87;;;8.90;;
4317;SDS011;2172;53.576;9.934;2023-07-22T05:19:45;13.53;;;10.07;;
4317;SDS011;2172;53.576;9.934;2023-07-22T05:22:14;17.20;;;10.40;;
4317;SDS011;2172;53.576;9.934;2023-07-22T05:24:43;13.77;;;9.17;;
4317;SDS011;2172;53.576;9.934;2023-07-22T05:27:11;17.13;;;10.67;;
4317;SDS011;2172;53.576;9.934;2023-07-22T05:29:39;12.70;;;9.03;;
4317;SDS011;2172;53.576;9.934;2023-07-22T05:32:06;12.10;;;9.40;;
4317;SDS011;2172;53.576;9.934;2023-07-22T05:34:34;17.80;;;9.47;;
4317;SDS011;2172;53.576;9.934;2023-07-22T05:37:02;13.33;;;8.43;;
4317;SDS011;2172;53.576;9.934;2023-07-22T05:39:30;11.13;;;9.10;;
4317;SDS011;2172;53.576;9.934;2023-07-22T05:41:59;11.40;;;8.67;;
4317;SDS011;2172;53.576;9.934;2023-07-22T05:44:26;12.43;;;8.13;;
4317;SDS011;2172;53.576;9.934;2023-07-22T05:46:54;14.70;;;7.63;;
4317;SDS011;2172;53.576;9.934;2023-07-22T05:49:21;12.30;;;8.60;;
4317;SDS011;2172;53.576;9.934;2023-07-22T05:51:49;13.00;;;8.20;;
4317;SDS011;2172;53.576;9.934;2023-07-22T05:54:17;10.47;;;7.43;;
4317;SDS011;2172;53.576;9.934;2023-07-22T05:56:44;15.03;;;7.53;;
4317;SDS011;2172;53.576;9.934;2023-07-22T05:59:13;15.50;;;7.90;;
4317;SDS011;2172;53.576;9.934;2023-07-22T06:01:40;14.50;;;7.93;;
4317;SDS011;2172;53.576;9.934;2023-07-22T06:04:08;11.90;;;8.00;;
4317;SDS011;2172;53.576;9.934;2023-07-22T06:06:36;9.10;;;7.10;;
4317;SDS011;2172;53.576;9.934;2023-07-22T06:09:03;11.37;;;7.17;;
4317;SDS011;2172;53.576;9.934;2023-07-22T06:11:31;8.97;;;6.97;;
4317;SDS011;2172;53.576;9.934;2023-07-22T06:13:58;9.50;;;6.83;;
4317;SDS011;2172;53.576;9.934;2023-07-22T06:16:28;8.93;;;7.00;;
4317;SDS011;2172;53.576;9.934;2023-07-22T06:18:55;10.90;;;7.63;;
4317;SDS011;2172;53.576;9.934;2023-07-22T06:21:23;10.43;;;7.70;;
4317;SDS011;2172;53.576;9.934;2023-07-22T06:23:50;8.50;;;6.37;;
4317;SDS011;2172;53.576;9.934;2023-07-22T06:26:18;11.57;;;6.43;;
4317;SDS011;2172;53.576;9.934;2023-07-22T06:28:45;12.87;;;6.53;;
4317;SDS011;2172;53.576;9.934;2023-07-22T06:31:13;11.10;;;6.83;;
4317;SDS011;2172;53.576;9.934;2023-07-22T06:33:43;9.03;;;6.70;;
4317;SDS011;2172;53.576;9.934;2023-07-22T06:36:11;8.60;;;6.10;;
4317;SDS011;2172;53.576;9.934;2023-07-22T06:38:39;10.33;;;6.60;;
4317;SDS011;2172;53.576;9.934;2023-07-22T06:41:06;11.80;;;6.57;;
4317;SDS011;2172;53.576;9.934;2023-07-22T06:43:34;8.30;;;5.30;;
4317;SDS011;2172;53.576;9.934;2023-07-22T06:46:01;10.20;;;5.70;;
4317;SDS011;2172;53.576;9.934;2023-07-22T06:48:29;8.37;;;4.90;;
4317;SDS011;2172;53.576;9.934;2023-07-22T06:50:58;8.10;;;4.77;;
4317;SDS011;2172;53.576;9.934;2023-07-22T06:53:25;6.97;;;4.90;;
4317;SDS011;2172;53.576;9.934;2023-07-22T06:55:53;8.23;;;4.90;;
4317;SDS011;2172;53.576;9.934;2023-07-22T06:58:21;7.70;;;4.87;;
4317;SDS011;2172;53.576;9.934;2023-07-22T07:00:52;8.17;;;4.43;;
4317;SDS011;2172;53.576;9.934;2023-07-22T07:03:21;5.27;;;4.00;;
4317;SDS011;2172;53.576;9.934;2023-07-22T07:05:51;5.57;;;3.43;;
4317;SDS011;2172;53.576;9.934;2023-07-22T07:08:21;4.90;;;3.80;;
4317;SDS011;2172;53.576;9.934;2023-07-22T07:10:48;5.30;;;3.90;;
4317;SDS011;2172;53.576;9.934;2023-07-22T07:13:16;11.63;;;4.00;;
4317;SDS011;2172;53.576;9.934;2023-07-22T07:15:45;5.20;;;3.60;;
4317;SDS011;2172;53.576;9.934;2023-07-22T07:18:14;5.63;;;3.40;;
4317;SDS011;2172;53.576;9.934;2023-07-22T07:20:43;4.43;;;3.43;;
4317;SDS011;2172;53.576;9.934;2023-07-22T07:23:10;5.53;;;3.90;;
4317;SDS011;2172;53.576;9.934;2023-07-22T07:25:40;8.17;;;3.47;;
4317;SDS011;2172;53.576;9.934;2023-07-22T07:28:08;5.63;;;3.17;;
4317;SDS011;2172;53.576;9.934;2023-07-22T07:30:36;6.43;;;3.20;;
4317;SDS011;2172;53.576;9.934;2023-07-22T07:33:05;9.27;;;3.57;;
4317;SDS011;2172;53.576;9.934;2023-07-22T07:35:32;3.97;;;3.27;;
4317;SDS011;2172;53.576;9.934;2023-07-22T07:38:00;4.10;;;3.17;;
4317;SDS011;2172;53.576;9.934;2023-07-22T07:40:28;6.27;;;3.57;;
4317;SDS011;2172;53.576;9.934;2023-07-22T07:42:58;7.07;;;3.20;;
4317;SDS011;2172;53.576;9.934;2023-07-22T07:45:26;4.53;;;2.97;;
4317;SDS011;2172;53.576;9.934;2023-07-22T07:47:53;7.00;;;3.07;;
4317;SDS011;2172;53.576;9.934;2023-07-22T07:50:21;3.60;;;2.70;;
4317;SDS011;2172;53.576;9.934;2023-07-22T07:52:48;5.73;;;3.57;;
4317;SDS011;2172;53.576;9.934;2023-07-22T07:55:16;5.37;;;3.10;;
4317;SDS011;2172;53.576;9.934;2023-07-22T07:57:43;3.67;;;2.60;;
4317;SDS011;2172;53.576;9.934;2023-07-22T08:00:13;3.43;;;2.67;;
4317;SDS011;2172;53.576;9.934;2023-07-22T08:02:41;4.83;;;2.40;;
4317;SDS011;2172;53.576;9.934;2023-07-22T08:05:09;7.23;;;2.23;;
4317;SDS011;2172;53.576;9.934;2023-07-22T08:07:37;4.47;;;2.67;;
4317;SDS011;2172;53.576;9.934;2023-07-22T08:10:05;4.13;;;2.47;;
4317;SDS011;2172;53.576;9.934;2023-07-22T08:12:35;3.40;;;2.10;;
4317;SDS011;2172;53.576;9.934;2023-07-22T08:15:03;4.20;;;2.50;;
4317;SDS011;2172;53.576;9.934;2023-07-22T08:17:32;4.80;;;2.20;;
4317;SDS011;2172;53.576;9.934;2023-07-22T08:20:00;3.83;;;2.70;;
4317;SDS011;2172;53.576;9.934;2023-07-22T08:22:30;4.73;;;2.40;;
4317;SDS011;2172;53.576;9.934;2023-07-22T08:24:58;3.07;;;2.30;;
4317;SDS011;2172;53.576;9.934;2023-07-22T08:27:25;3.47;;;2.30;;
4317;SDS011;2172;53.576;9.934;2023-07-22T08:29:53;4.83;;;2.20;;
4317;SDS011;2172;53.576;9.934;2023-07-22T08:32:20;4.90;;;2.00;;
4317;SDS011;2172;53.576;9.934;2023-07-22T08:34:49;3.90;;;2.07;;
4317;SDS011;2172;53.576;9.934;2023-07-22T08:37:17;3.20;;;2.00;;
4317;SDS011;2172;53.576;9.934;2023-07-22T08:39:44;2.53;;;1.40;;
4317;SDS011;2172;53.576;9.934;2023-07-22T08:42:12;1.80;;;1.60;;
4317;SDS011;2172;53.576;9.934;2023-07-22T08:44:41;3.77;;;1.30;;
4317;SDS011;2172;53.576;9.934;2023-07-22T08:47:13;4.13;;;2.77;;
4317;SDS011;2172;53.576;9.934;2023-07-22T08:49:43;12.93;;;10.03;;
4317;SDS011;2172;53.576;9.934;2023-07-22T08:52:17;2.87;;;1.97;;
4317;SDS011;2172;53.576;9.934;2023-07-22T08:54:45;2.50;;;1.60;;
4317;SDS011;2172;53.576;9.934;2023-07-22T08:57:14;2.73;;;1.70;;
4317;SDS011;2172;53.576;9.934;2023-07-22T08:59:42;2.80;;;2.60;;
4317;SDS011;2172;53.576;9.934;2023-07-22T09:02:10;5.77;;;2.30;;
4317;SDS011;2172;53.576;9.934;2023-07-22T09:04:39;2.07;;;1.80;;
4317;SDS011;2172;53.576;9.934;2023-07-22T09:07:07;2.00;;;1.57;;
4317;SDS011;2172;53.576;9.934;2023-07-22T09:09:38;2.80;;;2.10;;
4317;SDS011;2172;53.576;9.934;2023-07-22T09:12:06;3.07;;;2.30;;
4317;SDS011;2172;53.576;9.934;2023-07-22T09:14:34;2.30;;;1.60;;
4317;SDS011;2172;53.576;9.934;2023-07-22T09:17:03;3.10;;;2.03;;
4317;SDS011;2172;53.576;9.934;2023-07-22T09:19:31;3.67;;;1.40;;
4317;SDS011;2172;53.576;9.934;2023-07-22T09:21:59;2.97;;;1.93;;
4317;SDS011;2172;53.576;9.934;2023-07-22T09:24:26;5.07;;;1.87;;
4317;SDS011;2172;53.576;9.934;2023-07-22T09:26:57;4.03;;;1.77;;
4317;SDS011;2172;53.576;9.934;2023-07-22T09:29:35;3.13;;;1.87;;
4317;SDS011;2172;53.576;9.934;2023-07-22T09:32:05;3.70;;;2.17;;
4317;SDS011;2172;53.576;9.934;2023-07-22T09:34:33;2.97;;;1.70;;
4317;SDS011;2172;53.576;9.934;2023-07-22T09:37:00;3.33;;;1.80;;
4317;SDS011;2172;53.576;9.934;2023-07-22T09:39:28;2.53;;;1.80;;
4317;SDS011;2172;53.576;9.934;2023-07-22T09:41:58;4.57;;;1.93;;
4317;SDS011;2172;53.576;9.934;2023-07-22T09:44:29;2.23;;;1.77;;
4317;SDS011;2172;53.576;9.934;2023-07-22T09:46:57;2.03;;;1.47;;
4317;SDS011;2172;53.576;9.934;2023-07-22T09:49:24;2.20;;;1.90;;
4317;SDS011;2172;53.576;9.934;2023-07-22T09:51:52;2.20;;;1.60;;
4317;SDS011;2172;53.576;9.934;2023-07-22T09:54:20;2.10;;;1.90;;
4317;SDS011;2172;53.576;9.934;2023-07-22T09:56:48;4.03;;;1.70;;
4317;SDS011;2172;53.576;9.934;2023-07-22T09:59:18;2.50;;;1.80;;
4317;SDS011;2172;53.576;9.934;2023-07-22T10:01:46;3.30;;;1.60;;
4317;SDS011;2172;53.576;9.934;2023-07-22T10:04:15;2.43;;;1.80;;
4317;SDS011;2172;53.576;9.934;2023-07-22T10:06:43;4.30;;;2.07;;
4317;SDS011;2172;53.576;9.934;2023-07-22T10:09:11;2.80;;;2.40;;
4317;SDS011;2172;53.576;9.934;2023-07-22T10:11:38;2.43;;;1.90;;
4317;SDS011;2172;53.576;9.934;2023-07-22T10:14:06;2.43;;;2.23;;
4317;SDS011;2172;53.576;9.934;2023-07-22T10:16:35;2.43;;;2.13;;
4317;SDS011;2172;53.576;9.934;2023-07-22T10:19:03;3.30;;;2.40;;
4317;SDS011;2172;53.576;9.934;2023-07-22T10:21:32;3.53;;;2.53;;
4317;SDS011;2172;53.576;9.934;2023-07-22T10:24:01;3.80;;;2.23;;
4317;SDS011;2172;53.576;9.934;2023-07-22T10:26:29;2.43;;;2.03;;
4317;SDS011;2172;53.576;9.934;2023-07-22T10:28:57;2.60;;;2.07;;
4317;SDS011;2172;53.576;9.934;2023-07-22T10:31:28;3.20;;;2.47;;
4317;SDS011;2172;53.576;9.934;2023-07-22T10:34:00;2.43;;;2.20;;
4317;SDS011;2172;53.576;9.934;2023-07-22T10:36:28;3.67;;;2.03;;
4317;SDS011;2172;53.576;9.934;2023-07-22T10:38:56;3.60;;;1.70;;
4317;SDS011;2172;53.576;9.934;2023-07-22T10:41:25;2.40;;;2.20;;
4317;SDS011;2172;53.576;9.934;2023-07-22T10:43:53;2.40;;;2.10;;
4317;SDS011;2172;53.576;9.934;2023-07-22T10:46:30;2.40;;;2.20;;
4317;SDS011;2172;53.576;9.934;2023-07-22T10:49:08;3.60;;;2.10;;
4317;SDS011;2172;53.576;9.934;2023-07-22T10:51:37;2.20;;;2.00;;
4317;SDS011;2172;53.576;9.934;2023-07-22T10:54:10;2.37;;;2.17;;
4317;SDS011;2172;53.576;9.934;2023-07-22T10:56:38;3.10;;;2.27;;
4317;SDS011;2172;53.576;9.934;2023-07-22T10:59:07;2.53;;;1.70;;
4317;SDS011;2172;53.576;9.934;2023-07-22T11:01:37;7.60;;;5.43;;
4317;SDS011;2172;53.576;9.934;2023-07-22T11:04:11;5.07;;;2.70;;
4317;SDS011;2172;53.576;9.934;2023-07-22T11:06:51;2.63;;;2.30;;
4317;SDS011;2172;53.576;9.934;2023-07-22T11:09:38;3.27;;;2.90;;
4317;SDS011;2172;53.576;9.934;2023-07-22T11:12:11;4.73;;;2.53;;
4317;SDS011;2172;53.576;9.934;2023-07-22T11:14:45;3.00;;;2.50;;
4317;SDS011;2172;53.576;9.934;2023-07-22T11:17:14;5.77;;;3.43;;
4317;SDS011;2172;53.576;9.934;2023-07-22T11:19:44;4.30;;;3.90;;
4317;SDS011;2172;53.576;9.934;2023-07-22T11:22:11;3.73;;;3.17;;
4317;SDS011;2172;53.576;9.934;2023-07-22T11:24:39;7.23;;;4.60;;
4317;SDS011;2172;53.576;9.934;2023-07-22T11:27:07;4.30;;;3.90;;
4317;SDS011;2172;53.576;9.934;2023-07-22T11:29:35;5.03;;;4.53;;
4317;SDS011;2172;53.576;9.934;2023-07-22T11:32:03;4.10;;;3.70;;
4317;SDS011;2172;53.576;9.934;2023-07-22T11:34:33;5.10;;;3.20;;
4317;SDS011;2172;53.576;9.934;2023-07-22T11:37:02;4.03;;;3.20;;
4317;SDS011;2172;53.576;9.934;2023-07-22T11:39:29;7.00;;;4.83;;
4317;SDS011;2172;53.576;9.934;2023-07-22T11:41:59;4.83;;;3.40;;
4317;SDS011;2172;53.576;9.934;2023-07-22T11:44:28;3.80;;;3.50;;
4317;SDS011;2172;53.576;9.934;2023-07-22T11:46:57;5.07;;;4.47;;
4317;SDS011;2172;53.576;9.934;2023-07-22T11:49:25;4.50;;;3.60;;
4317;SDS011;2172;53.576;9.934;2023-07-22T11:51:55;6.17;;;3.53;;
4317;SDS011;2172;53.576;9.934;2023-07-22T11:54:25;5.03;;;4.37;;
4317;SDS011;2172;53.576;9.934;2023-07-22T11:56:52;5.53;;;4.67;;
4317;SDS011;2172;53.576;9.934;2023-07-22T11:59:33;4.47;;;3.60;;
4317;SDS011;2172;53.576;9.934;2023-07-22T12:02:01;5.53;;;4.20;;
4317;SDS011;2172;53.576;9.934;2023-07-22T12:04:30;5.97;;;4.70;;
4317;SDS011;2172;53.576;9.934;2023-07-22T12:06:58;5.13;;;4.63;;
4317;SDS011;2172;53.576;9.934;2023-07-22T12:09:27;5.33;;;4.83;;
4317;SDS011;2172;53.576;9.934;2023-07-22T12:11:55;8.10;;;4.43;;
4317;SDS011;2172;53.576;9.934;2023-07-22T12:14:23;5.70;;;4.47;;
4317;SDS011;2172;53.576;9.934;2023-07-22T12:16:53;5.50;;;4.93;;
4317;SDS011;2172;53.576;9.934;2023-07-22T12:19:23;6.00;;;5.07;;
4317;SDS011;2172;53.576;9.934;2023-07-22T12:21:51;5.80;;;4.90;;
4317;SDS011;2172;53.576;9.934;2023-07-22T12:24:18;5.33;;;4.83;;
4317;SDS011;2172;53.576;9.934;2023-07-22T12:26:47;6.57;;;5.20;;
4317;SDS011;2172;53.576;9.934;2023-07-22T12:29:15;7.50;;;5.50;;
4317;SDS011;2172;53.576;9.934;2023-07-22T12:31:42;7.83;;;5.43;;
4317;SDS011;2172;53.576;9.934;2023-07-22T12:34:10;7.17;;;5.50;;
4317;SDS011;2172;53.576;9.934;2023-07-22T12:36:37;7.20;;;5.20;;
4317;SDS011;2172;53.576;9.934;2023-07-22T12:39:06;5.47;;;4.70;;
4317;SDS011;2172;53.576;9.934;2023-07-22T12:41:33;5.87;;;5.17;;
4317;SDS011;2172;53.576;9.934;2023-07-22T12:44:02;7.37;;;5.90;;
4317;SDS011;2172;53.576;9.934;2023-07-22T12:46:30;6.20;;;5.60;;
4317;SDS011;2172;53.576;9.934;2023-07-22T12:48:57;10.83;;;6.90;;
4317;SDS011;2172;53.576;9.934;2023-07-22T12:51:25;6.53;;;5.50;;
4317;SDS011;2172;53.576;9.934;2023-07-22T12:53:52;6.87;;;5.93;;
4317;SDS011;2172;53.576;9.934;2023-07-22T12:56:20;8.70;;;7.10;;
4317;SDS011;2172;53.576;9.934;2023-07-22T12:58:47;9.67;;;7.00;;
4317;SDS011;2172;53.576;9.934;2023-07-22T13:01:16;8.03;;;6.93;;
4317;SDS011;2172;53.576;9.934;2023-07-22T13:03:44;10.30;;;8.10;;
4317;SDS011;2172;53.576;9.934;2023-07-22T13:06:11;10.20;;;6.83;;
4317;SDS011;2172;53.576;9.934;2023-07-22T13:08:39;8.23;;;6.77;;
4317;SDS011;2172;53.576;9.934;2023-07-22T13:11:06;8.73;;;6.63;;
4317;SDS011;2172;53.576;9.934;2023-07-22T13:13:33;10.07;;;8.07;;
4317;SDS011;2172;53.576;9.934;2023-07-22T13:16:01;11.97;;;6.90;;
4317;SDS011;2172;53.576;9.934;2023-07-22T13:18:30;12.47;;;8.60;;
4317;SDS011;2172;53.576;9.934;2023-07-22T13:20:58;10.10;;;7.47;;
4317;SDS011;2172;53.576;9.934;2023-07-22T13:23:25;10.43;;;7.80;;
4317;SDS011;2172;53.576;9.934;2023-07-22T13:25:53;8.10;;;7.20;;
4317;SDS011;2172;53.576;9.934;2023-07-22T13:28:20;11.40;;;8.13;;
4317;SDS011;2172;53.576;9.934;2023-07-22T13:30:48;9.73;;;8.17;;
4317;SDS011;2172;53.576;9.934;2023-07-22T13:33:15;9.23;;;6.93;;
4317;SDS011;2172;53.576;9.934;2023-07-22T13:35:44;15.20;;;8.80;;
4317;SDS011;2172;53.576;9.934;2023-07-22T13:38:12;12.90;;;9.23;;
4317;SDS011;2172;53.576;9.934;2023-07-22T13:40:39;11.07;;;9.13;;
4317;SDS011;2172;53.576;9.934;2023-07-22T13:43:07;13.60;;;8.97;;
4317;SDS011;2172;53.576;9.934;2023-07-22T13:45:34;12.67;;;9.27;;
4317;SDS011;2172;53.576;9.934;2023-07-22T13:48:02;12.90;;;8.47;;
4317;SDS011;2172;53.576;9.934;2023-07-22T13:50:30;11.20;;;9.50;;
4317;SDS011;2172;53.576;9.934;2023-07-22T13:52:59;14.90;;;11.23;;
4317;SDS011;2172;53.576;9.934;2023-07-22T13:55:27;13.37;;;10.87;;
4317;SDS011;2172;53.576;9.934;2023-07-22T13:57:54;12.30;;;8.90;;
4317;SDS011;2172;53.576;9.934;2023-07-22T14:00:22;11.27;;;9.60;;
4317;SDS011;2172;53.576;9.934;2023-07-22T14:02:50;13.23;;;9.60;;
4317;SDS011;2172;53.576;9.934;2023-07-22T14:05:17;12.40;;;9.23;;
4317;SDS011;2172;53.576;9.934;2023-07-22T14:07:45;11.03;;;8.90;;
4317;SDS011;2172;53.576;9.934;2023-07-22T14:10:13;10.80;;;7.73;;
4317;SDS011;2172;53.576;9.934;2023-07-22T14:12:41;11.60;;;9.17;;
4317;SDS011;2172;53.576;9.934;2023-07-22T14:15:09;10.07;;;8.90;;
4317;SDS011;2172;53.576;9.934;2023-07-22T14:17:36;9.80;;;8.63;;
4317;SDS011;2172;53.576;9.934;2023-07-22T14:20:04;10.73;;;8.80;;
4317;SDS011;2172;53.576;9.934;2023-07-22T14:22:33;13.17;;;11.17;;
4317;SDS011;2172;53.576;9.934;2023-07-22T14:25:00;8.70;;;7.80;;
4317;SDS011;2172;53.576;9.934;2023-07-22T14:27:29;11.33;;;8.30;;
4317;SDS011;2172;53.576;9.934;2023-07-22T14:29:57;16.30;;;11.43;;
4317;SDS011;2172;53.576;9.934;2023-07-22T14:32:24;10.60;;;8.83;;
4317;SDS011;2172;53.576;9.934;2023-07-22T14:34:52;7.23;;;5.90;;
4317;SDS011;2172;53.576;9.934;2023-07-22T14:37:20;6.67;;;5.90;;
4317;SDS011;2172;53.576;9.934;2023-07-22T14:39:47;11.73;;;7.43;;
4317;SDS011;2172;53.576;9.934;2023-07-22T14:42:15;7.77;;;6.83;;
4317;SDS011;2172;53.576;9.934;2023-07-22T14:44:44;5.87;;;5.27;;
4317;SDS011;2172;53.576;9.934;2023-07-22T14:47:12;6.80;;;5.67;;
4317;SDS011;2172;53.576;9.934;2023-07-22T14:49:39;6.63;;;5.47;;
4317;SDS011;2172;53.576;9.934;2023-07-22T14:52:07;5.97;;;5.13;;
4317;SDS011;2172;53.576;9.934;2023-07-22T14:54:34;7.00;;;6.03;;
4317;SDS011;2172;53.576;9.934;2023-07-22T14:57:02;7.23;;;5.70;;
4317;SDS011;2172;53.576;9.934;2023-07-22T14:59:30;6.67;;;5.53;;
4317;SDS011;2172;53.576;9.934;2023-07-22T15:01:59;6.17;;;5.03;;
4317;SDS011;2172;53.576;9.934;2023-07-22T15:04:26;8.10;;;6.30;;
4317;SDS011;2172;53.576;9.934;2023-07-22T15:06:54;7.87;;;6.63;;
4317;SDS011;2172;53.576;9.934;2023-07-22T15:09:22;6.30;;;5.33;;